createdAt,value
2022-11-10T00:01:10.729Z,32.90
2022-11-10T00:03:39.422Z,33.60
2022-11-10T00:06:07.668Z,33.47
2022-11-10T00:08:35.013Z,33.30
2022-11-10T00:11:08.869Z,32.92
2022-11-10T00:13:57.145Z,32.65
2022-11-10T00:16:43.548Z,32.30
2022-11-10T00:19:10.886Z,32.92
2022-11-10T00:21:38.199Z,34.25
2022-11-10T00:24:05.937Z,34.75
2022-11-10T00:26:33.283Z,33.03
2022-11-10T00:29:00.544Z,35.03
2022-11-10T00:31:30.837Z,35.05
2022-11-10T00:33:58.976Z,35.57
2022-11-10T00:36:26.415Z,34.95
2022-11-10T00:38:53.823Z,34.45
2022-11-10T00:41:21.472Z,35.53
2022-11-10T00:43:49.054Z,36.28
2022-11-10T00:46:16.356Z,36.40
2022-11-10T00:48:43.641Z,34.35
2022-11-10T00:51:16.774Z,35.45
2022-11-10T00:53:44.013Z,34.30
2022-11-10T00:56:11.271Z,36.63
2022-11-10T00:58:38.685Z,38.08
2022-11-10T01:01:06.515Z,36.80
2022-11-10T01:03:34.310Z,38.67
2022-11-10T01:06:08.963Z,36.83
2022-11-10T01:08:36.662Z,38.22
2022-11-10T01:11:24.177Z,37.28
2022-11-10T01:13:52.405Z,37.50
2022-11-10T01:16:24.041Z,37.15
2022-11-10T01:18:55.622Z,37.65
2022-11-10T01:21:23.452Z,38.60
2022-11-10T01:23:50.688Z,35.60
2022-11-10T01:26:18.567Z,38.22
2022-11-10T01:28:46.167Z,39.33
2022-11-10T01:31:15.163Z,38.83
2022-11-10T01:33:42.479Z,37.65
2022-11-10T01:36:12.518Z,37.40
2022-11-10T01:38:40.930Z,37.15
2022-11-10T01:41:09.599Z,37.28
2022-11-10T01:43:37.305Z,38.03
2022-11-10T01:46:05.672Z,38.50
2022-11-10T01:48:36.296Z,38.08
2022-11-10T01:51:07.342Z,35.40
2022-11-10T01:53:37.610Z,37.28
2022-11-10T01:56:05.421Z,36.07
2022-11-10T01:58:39.944Z,38.85
2022-11-10T02:01:08.316Z,37.20
2022-11-10T02:03:52.091Z,37.83
2022-11-10T02:06:20.775Z,37.75
2022-11-10T02:08:48.320Z,37.33
2022-11-10T02:11:15.713Z,36.58
2022-11-10T02:13:43.448Z,38.80
2022-11-10T02:16:11.186Z,40.13
2022-11-10T02:18:39.205Z,37.63
2022-11-10T02:21:07.131Z,37.38
2022-11-10T02:23:34.448Z,39.45
2022-11-10T02:26:02.502Z,38.42
2022-11-10T02:28:33.595Z,37.42
2022-11-10T02:31:00.974Z,37.75
2022-11-10T02:33:28.234Z,38.42
2022-11-10T02:35:55.501Z,37.60
2022-11-10T02:38:22.797Z,35.80
2022-11-10T02:40:50.519Z,37.70
2022-11-10T02:43:19.530Z,35.42
2022-11-10T02:45:47.350Z,36.45
2022-11-10T02:48:15.764Z,33.42
2022-11-10T02:50:43.318Z,38.05
2022-11-10T02:53:10.660Z,38.63
2022-11-10T02:55:37.943Z,38.50
2022-11-10T02:58:05.277Z,37.00
2022-11-10T03:00:32.744Z,35.95
2022-11-10T03:03:02.153Z,36.30
2022-11-10T03:05:32.890Z,36.05
2022-11-10T03:08:01.202Z,36.78
2022-11-10T03:10:28.614Z,37.55
2022-11-10T03:12:56.962Z,38.17
2022-11-10T03:15:24.666Z,37.63
2022-11-10T03:17:52.149Z,36.45
2022-11-10T03:20:19.838Z,39.33
2022-11-10T03:22:47.317Z,38.38
2022-11-10T03:25:15.089Z,37.88
2022-11-10T03:27:42.351Z,38.58
2022-11-10T03:30:10.307Z,36.53
2022-11-10T03:32:37.592Z,37.67
2022-11-10T03:35:04.978Z,36.92
2022-11-10T03:37:32.204Z,36.38
2022-11-10T03:39:59.563Z,36.35
2022-11-10T03:42:26.820Z,36.03
2022-11-10T03:44:54.069Z,35.03
2022-11-10T03:47:21.701Z,34.53
2022-11-10T03:49:49.012Z,36.13
2022-11-10T03:52:16.862Z,36.95
2022-11-10T03:54:44.171Z,35.42
2022-11-10T03:57:11.867Z,36.65
2022-11-10T03:59:39.104Z,37.80
2022-11-10T04:02:06.369Z,37.45
2022-11-10T04:04:52.580Z,37.10
2022-11-10T04:07:38.946Z,39.97
2022-11-10T04:10:06.448Z,39.17
2022-11-10T04:12:52.398Z,41.05
2022-11-10T04:15:38.610Z,41.50
2022-11-10T04:18:21.296Z,39.83
2022-11-10T04:20:49.062Z,41.72
2022-11-10T04:23:28.186Z,40.63
2022-11-10T04:26:15.334Z,43.28
2022-11-10T04:28:43.106Z,41.75
2022-11-10T04:31:10.800Z,43.80
2022-11-10T04:33:38.534Z,43.67
2022-11-10T04:36:06.252Z,43.15
2022-11-10T04:38:36.137Z,42.97
2022-11-10T04:41:03.668Z,44.08
2022-11-10T04:43:31.372Z,43.85
2022-11-10T04:45:58.902Z,43.30
2022-11-10T04:48:26.484Z,44.30
2022-11-10T04:50:53.921Z,41.08
2022-11-10T04:53:21.524Z,43.67
2022-11-10T04:55:49.293Z,41.03
2022-11-10T04:58:16.612Z,43.90
2022-11-10T05:00:44.091Z,41.47
2022-11-10T05:03:12.224Z,41.45
2022-11-10T05:05:39.958Z,40.17
2022-11-10T05:08:07.612Z,44.50
2022-11-10T05:10:38.286Z,43.83
2022-11-10T05:13:05.805Z,42.88
2022-11-10T05:15:33.507Z,42.97
2022-11-10T05:18:00.956Z,43.22
2022-11-10T05:20:28.506Z,43.53
2022-11-10T05:23:35.525Z,41.67
2022-11-10T05:26:02.829Z,42.30
2022-11-10T05:28:30.139Z,41.67
2022-11-10T05:30:57.454Z,45.17
2022-11-10T05:33:25.258Z,43.42
2022-11-10T05:35:52.801Z,46.92
2022-11-10T05:38:20.032Z,46.13
2022-11-10T05:40:47.343Z,44.55
2022-11-10T05:43:15.382Z,44.85
2022-11-10T05:45:42.659Z,44.17
2022-11-10T05:48:09.914Z,40.35
2022-11-10T05:50:37.377Z,45.92
2022-11-10T05:53:04.702Z,43.28
2022-11-10T05:55:32.236Z,43.80
2022-11-10T05:57:59.546Z,42.67
2022-11-10T06:00:27.909Z,45.15
2022-11-10T06:03:01.323Z,44.30
2022-11-10T06:05:31.351Z,46.20
2022-11-10T06:07:58.983Z,46.10
2022-11-10T06:10:26.440Z,45.55
2022-11-10T06:12:53.704Z,42.20
2022-11-10T06:15:21.354Z,41.47
2022-11-10T06:17:49.020Z,40.25
2022-11-10T06:20:19.552Z,41.40
2022-11-10T06:22:59.536Z,43.10
2022-11-10T06:25:26.913Z,42.35
2022-11-10T06:27:54.232Z,43.45
2022-11-10T06:30:21.559Z,43.15
2022-11-10T06:32:48.880Z,35.55
2022-11-10T06:35:16.261Z,41.67
2022-11-10T06:37:43.565Z,42.22
2022-11-10T06:40:12.913Z,41.55
2022-11-10T06:42:40.234Z,42.33
2022-11-10T06:45:07.749Z,43.05
2022-11-10T06:47:35.004Z,43.65
2022-11-10T06:50:02.326Z,42.53
2022-11-10T06:52:31.665Z,43.85
2022-11-10T06:54:59.511Z,44.33
2022-11-10T06:57:27.057Z,42.67
2022-11-10T06:59:54.436Z,44.33
2022-11-10T07:02:22.083Z,41.83
2022-11-10T07:04:50.824Z,41.80
2022-11-10T07:07:18.165Z,39.75
2022-11-10T07:09:45.453Z,39.00
2022-11-10T07:12:12.730Z,40.15
2022-11-10T07:14:40.032Z,38.58
2022-11-10T07:17:07.415Z,37.75
2022-11-10T07:19:34.720Z,34.70
2022-11-10T07:22:06.711Z,35.28
2022-11-10T07:24:37.940Z,35.70
2022-11-10T07:27:05.223Z,36.05
2022-11-10T07:29:32.561Z,35.05
2022-11-10T07:31:59.822Z,33.47
2022-11-10T07:34:27.105Z,35.10
2022-11-10T07:36:54.625Z,36.13
2022-11-10T07:39:21.831Z,34.30
2022-11-10T07:41:52.451Z,35.30
2022-11-10T07:44:20.139Z,34.40
2022-11-10T07:46:47.390Z,31.75
2022-11-10T07:49:14.638Z,31.83
2022-11-10T07:51:43.362Z,31.75
2022-11-10T07:54:10.772Z,31.77
2022-11-10T07:56:38.033Z,30.15
2022-11-10T07:59:05.311Z,28.58
2022-11-10T08:01:34.209Z,29.15
2022-11-10T08:04:04.288Z,26.55
2022-11-10T08:06:36.460Z,27.50
2022-11-10T08:09:04.039Z,29.30
2022-11-10T08:11:31.327Z,27.98
2022-11-10T08:13:58.575Z,28.73
2022-11-10T08:16:25.882Z,26.95
2022-11-10T08:18:53.161Z,26.20
2022-11-10T08:21:20.443Z,27.35
2022-11-10T08:23:47.672Z,25.88
2022-11-10T08:26:17.837Z,25.20
2022-11-10T08:28:45.231Z,26.20
2022-11-10T08:31:12.513Z,25.17
2022-11-10T08:33:39.773Z,25.77
2022-11-10T08:36:07.157Z,25.58
2022-11-10T08:38:34.430Z,26.40
2022-11-10T08:41:01.680Z,24.83
2022-11-10T08:43:28.918Z,24.70
2022-11-10T08:46:01.690Z,24.08
2022-11-10T08:48:28.937Z,23.88
2022-11-10T08:50:56.187Z,24.13
2022-11-10T08:53:25.068Z,24.40
2022-11-10T08:55:53.534Z,23.77
2022-11-10T08:58:22.166Z,23.67
2022-11-10T09:00:49.483Z,23.50
2022-11-10T09:03:18.993Z,23.83
2022-11-10T09:05:46.824Z,23.30
2022-11-10T09:08:14.481Z,24.85
2022-11-10T09:10:44.085Z,24.35
2022-11-10T09:13:11.861Z,22.90
2022-11-10T09:15:39.738Z,25.27
2022-11-10T09:18:07.693Z,24.92
2022-11-10T09:20:35.821Z,24.95
2022-11-10T09:23:10.557Z,24.92
2022-11-10T09:25:38.229Z,24.92
2022-11-10T09:28:05.869Z,26.45
2022-11-10T09:30:33.160Z,26.92
2022-11-10T09:33:01.297Z,26.02
2022-11-10T09:35:28.950Z,24.58
2022-11-10T09:37:56.313Z,24.33
2022-11-10T09:40:26.105Z,24.70
2022-11-10T09:42:57.159Z,24.92
2022-11-10T09:45:39.147Z,23.88
2022-11-10T09:48:27.273Z,24.48
2022-11-10T09:51:11.829Z,24.48
2022-11-10T09:53:43.356Z,23.92
2022-11-10T09:56:15.509Z,24.83
2022-11-10T09:58:43.906Z,22.27
2022-11-10T10:01:23.417Z,22.38
2022-11-10T10:03:55.906Z,21.90
2022-11-10T10:06:23.546Z,22.30
2022-11-10T10:09:04.199Z,21.85
2022-11-10T10:11:34.537Z,22.75
2022-11-10T10:14:09.255Z,21.63
2022-11-10T10:16:51.027Z,21.40
2022-11-10T10:19:28.362Z,21.20
2022-11-10T10:21:58.804Z,20.20
2022-11-10T10:24:28.165Z,21.13
2022-11-10T10:26:56.240Z,20.95
2022-11-10T10:29:24.991Z,20.00
2022-11-10T10:31:53.302Z,19.58
2022-11-10T10:34:25.574Z,20.15
2022-11-10T10:36:52.829Z,19.80
2022-11-10T10:39:40.319Z,20.67
2022-11-10T10:42:16.917Z,20.38
2022-11-10T10:45:04.140Z,20.40
2022-11-10T10:47:38.290Z,21.35
2022-11-10T10:50:25.965Z,21.15
2022-11-10T10:53:13.787Z,21.10
2022-11-10T10:55:48.514Z,21.13
2022-11-10T10:58:26.643Z,21.63
2022-11-10T11:01:00.028Z,21.63
2022-11-10T11:03:37.829Z,21.10
2022-11-10T11:06:05.923Z,22.25
2022-11-10T11:08:33.389Z,21.42
2022-11-10T11:11:25.579Z,21.95
2022-11-10T11:13:52.853Z,23.02
2022-11-10T11:16:20.152Z,22.95
2022-11-10T11:18:47.569Z,22.05
2022-11-10T11:21:24.242Z,21.42
2022-11-10T11:23:57.685Z,22.10
2022-11-10T11:26:34.154Z,21.42
2022-11-10T11:29:09.802Z,21.90
2022-11-10T11:32:03.639Z,23.00
2022-11-10T11:34:37.900Z,23.02
2022-11-10T11:37:19.076Z,23.35
2022-11-10T11:39:53.490Z,22.60
2022-11-10T11:42:23.751Z,22.27
2022-11-10T11:45:05.963Z,22.57
2022-11-10T11:47:36.000Z,20.75
2022-11-10T11:50:03.205Z,19.90
2022-11-10T11:52:48.989Z,20.17
2022-11-10T11:55:20.952Z,20.13
2022-11-10T11:57:55.183Z,20.30
2022-11-10T12:00:22.553Z,20.05
2022-11-10T12:02:52.998Z,20.65
2022-11-10T12:05:26.604Z,18.58
2022-11-10T12:07:58.508Z,18.17
2022-11-10T12:10:43.272Z,18.30
2022-11-10T12:13:10.757Z,20.15
2022-11-10T12:15:56.774Z,21.40
2022-11-10T12:18:24.177Z,21.00
2022-11-10T12:21:08.084Z,20.58
2022-11-10T12:23:45.710Z,21.08
2022-11-10T12:26:31.416Z,19.90
2022-11-10T12:29:17.032Z,21.60
2022-11-10T12:31:45.798Z,20.90
2022-11-10T12:34:25.210Z,21.65
2022-11-10T12:36:52.660Z,21.98
2022-11-10T12:39:19.937Z,22.08
2022-11-10T12:41:49.272Z,20.30
2022-11-10T12:44:36.790Z,21.63
2022-11-10T12:47:11.067Z,20.27
2022-11-10T12:49:39.691Z,21.35
2022-11-10T12:52:10.062Z,20.55
2022-11-10T12:54:37.968Z,19.45
2022-11-10T12:57:17.156Z,20.17
2022-11-10T13:00:04.628Z,20.13
2022-11-10T13:02:31.941Z,19.92
2022-11-10T13:05:14.498Z,20.05
2022-11-10T13:08:05.006Z,18.25
2022-11-10T13:10:32.349Z,18.70
2022-11-10T13:13:15.268Z,19.35
2022-11-10T13:15:50.514Z,19.83
2022-11-10T13:18:25.329Z,20.40
2022-11-10T13:20:56.165Z,21.10
2022-11-10T13:23:28.329Z,19.33
2022-11-10T13:25:55.580Z,19.95
2022-11-10T13:28:41.638Z,20.15
2022-11-10T13:31:27.390Z,18.60
2022-11-10T13:34:03.547Z,19.48
2022-11-10T13:36:41.264Z,19.42
2022-11-10T13:39:17.640Z,19.73
2022-11-10T13:41:48.513Z,20.05
2022-11-10T13:44:24.974Z,19.85
2022-11-10T13:47:10.709Z,21.98
2022-11-10T13:49:56.806Z,21.95
2022-11-10T13:52:30.465Z,21.65
2022-11-10T13:55:23.942Z,22.88
2022-11-10T13:57:58.548Z,22.73
2022-11-10T14:00:29.970Z,22.73
2022-11-10T14:03:01.408Z,22.50
2022-11-10T14:05:32.728Z,23.13
2022-11-10T14:08:07.052Z,22.25
2022-11-10T14:10:40.943Z,22.55
2022-11-10T14:13:13.988Z,22.08
2022-11-10T14:15:45.908Z,22.48
2022-11-10T14:18:18.915Z,22.48
2022-11-10T14:20:47.672Z,22.90
2022-11-10T14:23:25.355Z,22.60
2022-11-10T14:25:59.612Z,22.23
2022-11-10T14:28:31.128Z,21.05
2022-11-10T14:30:58.997Z,22.98
2022-11-10T14:33:27.547Z,22.23
2022-11-10T14:35:57.430Z,22.38
2022-11-10T14:38:26.291Z,22.05
2022-11-10T14:40:58.051Z,22.55
2022-11-10T14:43:28.226Z,23.98
2022-11-10T14:45:55.667Z,24.98
2022-11-10T14:48:24.866Z,22.58
2022-11-10T14:50:52.881Z,23.58
2022-11-10T14:53:31.346Z,23.23
2022-11-10T14:55:59.788Z,22.40
2022-11-10T14:58:29.185Z,23.27
2022-11-10T15:00:56.519Z,25.95
2022-11-10T15:03:38.780Z,23.73
2022-11-10T15:06:08.345Z,23.70
2022-11-10T15:08:35.775Z,21.95
2022-11-10T15:11:03.641Z,23.40
2022-11-10T15:13:32.025Z,23.35
2022-11-10T15:16:18.025Z,23.42
2022-11-10T15:18:47.690Z,23.20
2022-11-10T15:21:16.600Z,23.40
2022-11-10T15:23:45.296Z,23.70
2022-11-10T15:26:22.954Z,24.25
2022-11-10T15:28:50.458Z,23.98
2022-11-10T15:31:36.188Z,24.95
2022-11-10T15:34:04.869Z,25.10
2022-11-10T15:36:36.036Z,23.98
2022-11-10T15:41:32.173Z,24.73
2022-11-10T15:44:13.066Z,21.92
2022-11-10T15:46:40.342Z,22.20
2022-11-10T15:49:18.121Z,21.77
2022-11-10T15:51:45.540Z,21.85
2022-11-10T15:54:12.839Z,22.63
2022-11-10T15:56:40.223Z,22.40
2022-11-10T15:59:07.535Z,23.40
2022-11-10T16:01:34.893Z,22.17
2022-11-10T16:04:02.204Z,22.05
2022-11-10T16:06:30.747Z,21.90
2022-11-10T16:08:58.037Z,22.02
2022-11-10T16:11:25.317Z,21.35
2022-11-10T16:13:53.055Z,20.73
2022-11-10T16:16:20.637Z,19.55
2022-11-10T16:18:47.934Z,20.67
2022-11-10T16:21:16.251Z,20.23
2022-11-10T16:23:43.869Z,19.90
2022-11-10T16:26:15.155Z,19.20
2022-11-10T16:28:44.313Z,19.27
2022-11-10T16:31:12.388Z,19.17
2022-11-10T16:33:39.624Z,18.08
2022-11-10T16:36:07.280Z,18.50
2022-11-10T16:38:34.576Z,18.10
2022-11-10T16:41:05.150Z,18.40
2022-11-10T16:43:32.833Z,18.17
2022-11-10T16:46:01.269Z,18.95
2022-11-10T16:48:29.541Z,18.67
2022-11-10T16:50:58.522Z,18.17
2022-11-10T16:53:28.029Z,17.85
2022-11-10T16:55:55.412Z,17.75
2022-11-10T16:58:24.986Z,16.42
2022-11-10T17:00:52.615Z,17.13
2022-11-10T17:03:28.206Z,17.63
2022-11-10T17:05:55.483Z,16.45
2022-11-10T17:08:24.364Z,16.50
2022-11-10T17:10:52.009Z,20.30
2022-11-10T17:13:19.494Z,19.17
2022-11-10T17:15:46.986Z,17.73
2022-11-10T17:18:16.227Z,17.10
2022-11-10T17:20:45.504Z,14.95
2022-11-10T17:23:14.608Z,16.20
2022-11-10T17:25:42.688Z,15.88
2022-11-10T17:28:13.694Z,16.13
2022-11-10T17:30:41.359Z,15.65
2022-11-10T17:33:09.105Z,15.48
2022-11-10T17:35:45.113Z,15.85
2022-11-10T17:38:13.485Z,14.18
2022-11-10T17:40:42.780Z,14.57
2022-11-10T17:43:12.130Z,15.00
2022-11-10T17:45:39.513Z,14.32
2022-11-10T17:48:07.083Z,14.75
2022-11-10T17:50:35.875Z,13.98
2022-11-10T17:53:04.828Z,14.45
2022-11-10T17:55:34.475Z,14.95
2022-11-10T17:58:01.954Z,13.85
2022-11-10T18:00:30.074Z,13.57
2022-11-10T18:02:57.349Z,13.68
2022-11-10T18:05:24.632Z,13.40
2022-11-10T18:07:52.148Z,13.93
2022-11-10T18:10:19.424Z,13.18
2022-11-10T18:12:46.715Z,12.90
2022-11-10T18:15:14.802Z,11.70
2022-11-10T18:17:42.199Z,11.85
2022-11-10T18:20:10.109Z,11.35
2022-11-10T18:22:37.519Z,10.27
2022-11-10T18:25:05.356Z,9.75
2022-11-10T18:27:32.870Z,9.52
2022-11-10T18:30:00.304Z,9.27
2022-11-10T18:32:27.920Z,9.57
2022-11-10T18:34:55.472Z,8.93
2022-11-10T18:37:22.773Z,8.65
2022-11-10T18:39:50.100Z,8.68
2022-11-10T18:42:17.321Z,7.90
2022-11-10T18:44:44.558Z,7.75
2022-11-10T18:47:13.020Z,8.00
2022-11-10T18:49:40.289Z,7.95
2022-11-10T18:52:07.592Z,8.32
2022-11-10T18:54:34.885Z,8.18
2022-11-10T18:57:02.156Z,7.28
2022-11-10T18:59:29.451Z,6.78
2022-11-10T19:01:56.841Z,7.40
2022-11-10T19:04:24.106Z,6.72
2022-11-10T19:06:51.403Z,6.60
2022-11-10T19:09:18.712Z,6.28
2022-11-10T19:11:45.984Z,5.70
2022-11-10T19:14:13.239Z,5.90
2022-11-10T19:16:40.578Z,5.90
2022-11-10T19:19:07.804Z,5.15
2022-11-10T19:21:35.085Z,5.70
2022-11-10T19:24:02.379Z,5.25
2022-11-10T19:26:29.942Z,5.47
2022-11-10T19:28:57.245Z,5.25
2022-11-10T19:31:25.112Z,5.85
2022-11-10T19:33:53.982Z,5.85
2022-11-10T19:36:22.466Z,5.47
2022-11-10T19:38:49.721Z,5.35
2022-11-10T19:41:27.357Z,5.85
2022-11-10T19:43:54.825Z,5.50
2022-11-10T19:46:27.702Z,4.97
2022-11-10T19:48:55.436Z,5.10
2022-11-10T19:51:23.248Z,4.97
2022-11-10T19:53:58.002Z,5.28
2022-11-10T19:56:31.724Z,5.70
2022-11-10T19:58:59.563Z,5.65
2022-11-10T20:01:26.947Z,5.20
2022-11-10T20:03:54.249Z,4.95
2022-11-10T20:06:23.234Z,5.50
2022-11-10T20:08:50.990Z,5.70
2022-11-10T20:11:20.982Z,5.13
2022-11-10T20:13:54.230Z,5.78
2022-11-10T20:16:22.147Z,5.50
2022-11-10T20:18:49.386Z,5.78
2022-11-10T20:21:20.289Z,6.03
2022-11-10T20:23:52.159Z,5.97
2022-11-10T20:26:19.424Z,6.18
2022-11-10T20:28:46.781Z,6.22
2022-11-10T20:31:16.622Z,5.68
2022-11-10T20:33:45.407Z,5.25
2022-11-10T20:36:19.903Z,5.05
2022-11-10T20:38:48.656Z,4.85
2022-11-10T20:41:17.481Z,4.25
2022-11-10T20:43:44.755Z,4.57
2022-11-10T20:46:40.251Z,4.00
2022-11-10T20:49:06.265Z,4.13
2022-11-10T20:51:33.514Z,4.65
2022-11-10T20:54:01.463Z,4.70
2022-11-10T20:56:30.077Z,4.35
2022-11-10T20:58:58.095Z,4.72
2022-11-10T21:01:25.727Z,4.20
2022-11-10T21:03:53.190Z,4.25
2022-11-10T21:06:20.642Z,4.22
2022-11-10T21:08:47.884Z,3.90
2022-11-10T21:11:35.076Z,3.65
2022-11-10T21:14:02.402Z,3.97
2022-11-10T21:16:29.731Z,3.88
2022-11-10T21:18:57.507Z,4.13
2022-11-10T21:21:34.587Z,3.97
2022-11-10T21:24:10.384Z,4.28
2022-11-10T21:26:37.864Z,4.10
2022-11-10T21:29:07.917Z,4.53
2022-11-10T21:31:35.324Z,4.50
2022-11-10T21:34:02.593Z,4.35
2022-11-10T21:36:30.143Z,3.88
2022-11-10T21:38:57.823Z,3.90
2022-11-10T21:41:25.633Z,4.05
2022-11-10T21:43:53.024Z,4.10
2022-11-10T21:46:20.987Z,3.80
2022-11-10T21:48:48.320Z,3.78
2022-11-10T21:51:15.572Z,4.10
2022-11-10T21:53:43.211Z,4.10
2022-11-10T21:56:11.608Z,3.63
2022-11-10T21:58:39.305Z,4.10
2022-11-10T22:01:19.089Z,4.35
2022-11-10T22:03:46.458Z,3.70
2022-11-10T22:06:17.956Z,3.80
2022-11-10T22:08:46.547Z,3.97
2022-11-10T22:11:34.251Z,4.03
2022-11-10T22:14:19.845Z,4.10
2022-11-10T22:17:06.997Z,4.28
2022-11-10T22:19:35.109Z,3.72
2022-11-10T22:22:03.894Z,3.42
2022-11-10T22:24:31.633Z,4.10
2022-11-10T22:27:03.328Z,4.20
2022-11-10T22:29:32.187Z,3.95
2022-11-10T22:32:02.377Z,3.92
2022-11-10T22:34:29.915Z,4.22
2022-11-10T22:36:59.571Z,4.43
2022-11-10T22:39:45.930Z,5.05
2022-11-10T22:42:31.838Z,4.30
2022-11-10T22:44:59.188Z,4.60
2022-11-10T22:47:46.421Z,5.38
2022-11-10T22:50:13.702Z,5.43
2022-11-10T22:52:40.987Z,5.25
2022-11-10T22:55:08.446Z,4.85
2022-11-10T22:57:35.731Z,4.45
2022-11-10T23:00:02.980Z,5.45
2022-11-10T23:02:30.226Z,5.90
2022-11-10T23:04:57.501Z,5.78
2022-11-10T23:07:24.740Z,6.72
2022-11-10T23:09:52.021Z,6.43
2022-11-10T23:12:19.270Z,6.80
2022-11-10T23:14:46.514Z,6.75
2022-11-10T23:17:13.729Z,6.18
2022-11-10T23:19:40.981Z,5.60
2022-11-10T23:22:08.212Z,5.65
2022-11-10T23:24:35.437Z,5.28
2022-11-10T23:27:02.683Z,5.25
2022-11-10T23:29:29.946Z,5.65
2022-11-10T23:31:57.212Z,4.85
2022-11-10T23:34:24.545Z,5.03
2022-11-10T23:36:51.780Z,4.70
2022-11-10T23:39:19.300Z,4.90
2022-11-10T23:41:46.556Z,4.82
2022-11-10T23:44:13.819Z,5.20
2022-11-10T23:46:41.077Z,4.90
2022-11-10T23:49:08.432Z,4.90
2022-11-10T23:51:35.655Z,5.25
2022-11-10T23:54:02.920Z,4.72
2022-11-10T23:56:30.173Z,4.43
2022-11-10T23:58:57.422Z,4.20
